sensor_id;sensor_type;location;lat;lon;timestamp;temperature;humidity
59977;DHT22;45837;51.076;3.578;2023-04-25T00:00:00;19.70;55.90
59977;DHT22;45837;51.076;3.578;2023-04-25T00:02:26;19.70;55.70
59977;DHT22;45837;51.076;3.578;2023-04-25T00:04:53;19.70;55.50
59977;DHT22;45837;51.076;3.578;2023-04-25T00:07:22;19.70;55.90
59977;DHT22;45837;51.076;3.578;2023-04-25T00:09:48;19.70;55.60
59977;DHT22;45837;51.076;3.578;2023-04-25T00:12:13;19.70;55.50
59977;DHT22;45837;51.076;3.578;2023-04-25T00:14:39;19.70;55.50
59977;DHT22;45837;51.076;3.578;2023-04-25T00:17:05;19.70;55.50
59977;DHT22;45837;51.076;3.578;2023-04-25T00:19:31;19.70;55.40
59977;DHT22;45837;51.076;3.578;2023-04-25T00:21:58;19.70;55.40
59977;DHT22;45837;51.076;3.578;2023-04-25T00:24:23;19.70;55.30
59977;DHT22;45837;51.076;3.578;2023-04-25T00:26:49;19.60;55.40
59977;DHT22;45837;51.076;3.578;2023-04-25T00:29:15;19.60;55.40
59977;DHT22;45837;51.076;3.578;2023-04-25T00:31:40;19.70;55.50
59977;DHT22;45837;51.076;3.578;2023-04-25T00:34:06;19.60;55.40
59977;DHT22;45837;51.076;3.578;2023-04-25T00:36:32;19.70;55.30
59977;DHT22;45837;51.076;3.578;2023-04-25T00:38:58;19.70;55.40
59977;DHT22;45837;51.076;3.578;2023-04-25T00:41:25;19.60;55.40
59977;DHT22;45837;51.076;3.578;2023-04-25T00:43:50;19.60;55.00
59977;DHT22;45837;51.076;3.578;2023-04-25T00:46:16;19.60;55.00
59977;DHT22;45837;51.076;3.578;2023-04-25T00:48:42;19.60;55.40
59977;DHT22;45837;51.076;3.578;2023-04-25T00:51:08;19.60;55.50
59977;DHT22;45837;51.076;3.578;2023-04-25T00:53:35;19.60;55.00
59977;DHT22;45837;51.076;3.578;2023-04-25T00:56:01;19.60;55.20
59977;DHT22;45837;51.076;3.578;2023-04-25T00:58:26;19.60;55.40
59977;DHT22;45837;51.076;3.578;2023-04-25T01:00:52;19.60;55.50
59977;DHT22;45837;51.076;3.578;2023-04-25T01:03:18;19.60;55.40
59977;DHT22;45837;51.076;3.578;2023-04-25T01:05:45;19.60;55.30
59977;DHT22;45837;51.076;3.578;2023-04-25T01:08:12;19.60;55.10
59977;DHT22;45837;51.076;3.578;2023-04-25T01:10:37;19.60;55.10
59977;DHT22;45837;51.076;3.578;2023-04-25T01:13:03;19.60;55.50
59977;DHT22;45837;51.076;3.578;2023-04-25T01:15:29;19.60;55.40
59977;DHT22;45837;51.076;3.578;2023-04-25T01:17:54;19.60;55.30
59977;DHT22;45837;51.076;3.578;2023-04-25T01:20:21;19.60;55.10
59977;DHT22;45837;51.076;3.578;2023-04-25T01:22:48;19.60;55.10
59977;DHT22;45837;51.076;3.578;2023-04-25T01:25:15;18.50;54.50
59977;DHT22;45837;51.076;3.578;2023-04-25T01:27:41;19.60;55.00
59977;DHT22;45837;51.076;3.578;2023-04-25T01:30:07;19.60;55.30
59977;DHT22;45837;51.076;3.578;2023-04-25T01:32:34;19.60;55.00
59977;DHT22;45837;51.076;3.578;2023-04-25T01:35:04;19.60;55.10
59977;DHT22;45837;51.076;3.578;2023-04-25T01:37:38;19.50;54.90
59977;DHT22;45837;51.076;3.578;2023-04-25T01:40:03;19.50;54.90
59977;DHT22;45837;51.076;3.578;2023-04-25T01:42:31;19.60;55.00
59977;DHT22;45837;51.076;3.578;2023-04-25T01:44:57;19.50;54.90
59977;DHT22;45837;51.076;3.578;2023-04-25T01:47:23;19.50;54.90
59977;DHT22;45837;51.076;3.578;2023-04-25T01:49:49;19.50;55.60
59977;DHT22;45837;51.076;3.578;2023-04-25T01:52:15;19.50;55.20
59977;DHT22;45837;51.076;3.578;2023-04-25T01:54:41;19.50;55.00
59977;DHT22;45837;51.076;3.578;2023-04-25T01:57:10;19.60;55.50
59977;DHT22;45837;51.076;3.578;2023-04-25T01:59:37;19.50;54.80
59977;DHT22;45837;51.076;3.578;2023-04-25T02:02:15;19.50;55.00
59977;DHT22;45837;51.076;3.578;2023-04-25T02:04:41;19.50;55.20
59977;DHT22;45837;51.076;3.578;2023-04-25T02:07:08;19.50;55.20
59977;DHT22;45837;51.076;3.578;2023-04-25T02:09:43;19.50;55.20
59977;DHT22;45837;51.076;3.578;2023-04-25T02:12:10;19.40;55.30
59977;DHT22;45837;51.076;3.578;2023-04-25T02:14:54;19.50;55.00
59977;DHT22;45837;51.076;3.578;2023-04-25T02:17:26;19.50;54.90
59977;DHT22;45837;51.076;3.578;2023-04-25T02:19:52;19.40;55.10
59977;DHT22;45837;51.076;3.578;2023-04-25T02:22:18;19.50;55.10
59977;DHT22;45837;51.076;3.578;2023-04-25T02:24:45;19.50;55.20
59977;DHT22;45837;51.076;3.578;2023-04-25T02:27:11;19.50;54.70
59977;DHT22;45837;51.076;3.578;2023-04-25T02:29:37;19.50;55.10
59977;DHT22;45837;51.076;3.578;2023-04-25T02:32:03;19.50;54.90
59977;DHT22;45837;51.076;3.578;2023-04-25T02:34:29;19.50;55.10
59977;DHT22;45837;51.076;3.578;2023-04-25T02:36:54;19.50;55.20
59977;DHT22;45837;51.076;3.578;2023-04-25T02:39:20;19.40;54.80
59977;DHT22;45837;51.076;3.578;2023-04-25T02:41:48;19.50;54.90
59977;DHT22;45837;51.076;3.578;2023-04-25T02:44:14;19.40;55.20
59977;DHT22;45837;51.076;3.578;2023-04-25T02:46:39;19.40;55.00
59977;DHT22;45837;51.076;3.578;2023-04-25T02:49:05;19.50;55.30
59977;DHT22;45837;51.076;3.578;2023-04-25T02:51:31;19.40;54.60
59977;DHT22;45837;51.076;3.578;2023-04-25T02:53:58;19.40;54.80
59977;DHT22;45837;51.076;3.578;2023-04-25T02:56:24;19.40;55.10
59977;DHT22;45837;51.076;3.578;2023-04-25T02:58:52;19.40;54.90
59977;DHT22;45837;51.076;3.578;2023-04-25T03:01:17;19.40;54.70
59977;DHT22;45837;51.076;3.578;2023-04-25T03:03:43;19.40;55.00
59977;DHT22;45837;51.076;3.578;2023-04-25T03:06:09;19.40;55.00
59977;DHT22;45837;51.076;3.578;2023-04-25T03:08:36;19.40;55.10
59977;DHT22;45837;51.076;3.578;2023-04-25T03:11:01;19.40;55.20
59977;DHT22;45837;51.076;3.578;2023-04-25T03:13:28;19.40;55.20
59977;DHT22;45837;51.076;3.578;2023-04-25T03:15:55;19.40;54.90
59977;DHT22;45837;51.076;3.578;2023-04-25T03:18:21;19.40;55.10
59977;DHT22;45837;51.076;3.578;2023-04-25T03:20:47;19.40;54.80
59977;DHT22;45837;51.076;3.578;2023-04-25T03:23:12;19.40;55.10
59977;DHT22;45837;51.076;3.578;2023-04-25T03:25:41;19.30;54.90
59977;DHT22;45837;51.076;3.578;2023-04-25T03:28:06;19.30;55.00
59977;DHT22;45837;51.076;3.578;2023-04-25T03:30:32;19.40;54.90
59977;DHT22;45837;51.076;3.578;2023-04-25T03:32:58;19.30;54.90
59977;DHT22;45837;51.076;3.578;2023-04-25T03:35:24;19.30;54.70
59977;DHT22;45837;51.076;3.578;2023-04-25T03:37:50;19.30;54.80
59977;DHT22;45837;51.076;3.578;2023-04-25T03:40:21;19.30;55.00
59977;DHT22;45837;51.076;3.578;2023-04-25T03:43:04;19.30;54.90
59977;DHT22;45837;51.076;3.578;2023-04-25T03:45:30;19.30;54.70
59977;DHT22;45837;51.076;3.578;2023-04-25T03:47:56;19.30;54.60
59977;DHT22;45837;51.076;3.578;2023-04-25T03:52:59;19.30;54.40
59977;DHT22;45837;51.076;3.578;2023-04-25T03:55:28;19.30;55.00
59977;DHT22;45837;51.076;3.578;2023-04-25T03:57:53;19.30;55.50
59977;DHT22;45837;51.076;3.578;2023-04-25T04:00:19;19.30;55.20
59977;DHT22;45837;51.076;3.578;2023-04-25T04:02:49;19.40;55.50
59977;DHT22;45837;51.076;3.578;2023-04-25T04:05:15;19.30;54.90
59977;DHT22;45837;51.076;3.578;2023-04-25T04:07:47;19.30;55.10
59977;DHT22;45837;51.076;3.578;2023-04-25T04:10:15;19.30;55.50
59977;DHT22;45837;51.076;3.578;2023-04-25T04:12:41;19.30;55.70
59977;DHT22;45837;51.076;3.578;2023-04-25T04:15:07;19.30;54.60
59977;DHT22;45837;51.076;3.578;2023-04-25T04:17:34;19.30;55.00
59977;DHT22;45837;51.076;3.578;2023-04-25T04:20:00;19.30;54.60
59977;DHT22;45837;51.076;3.578;2023-04-25T04:22:29;19.30;55.20
59977;DHT22;45837;51.076;3.578;2023-04-25T04:24:58;19.30;55.30
59977;DHT22;45837;51.076;3.578;2023-04-25T04:27:50;19.30;55.00
59977;DHT22;45837;51.076;3.578;2023-04-25T04:30:39;19.30;54.80
59977;DHT22;45837;51.076;3.578;2023-04-25T04:33:07;19.30;55.30
59977;DHT22;45837;51.076;3.578;2023-04-25T04:35:34;19.30;55.10
59977;DHT22;45837;51.076;3.578;2023-04-25T04:38:00;19.30;55.60
59977;DHT22;45837;51.076;3.578;2023-04-25T04:40:30;19.30;54.50
59977;DHT22;45837;51.076;3.578;2023-04-25T04:43:25;19.30;55.00
59977;DHT22;45837;51.076;3.578;2023-04-25T04:45:53;19.30;55.50
59977;DHT22;45837;51.076;3.578;2023-04-25T04:48:51;19.30;55.60
59977;DHT22;45837;51.076;3.578;2023-04-25T04:51:37;19.30;55.60
59977;DHT22;45837;51.076;3.578;2023-04-25T04:54:13;19.40;55.90
59977;DHT22;45837;51.076;3.578;2023-04-25T04:57:10;19.40;55.80
59977;DHT22;45837;51.076;3.578;2023-04-25T04:59:51;19.40;55.70
59977;DHT22;45837;51.076;3.578;2023-04-25T05:02:36;19.40;56.20
59977;DHT22;45837;51.076;3.578;2023-04-25T05:05:22;19.50;55.60
59977;DHT22;45837;51.076;3.578;2023-04-25T05:08:13;19.60;56.00
59977;DHT22;45837;51.076;3.578;2023-04-25T05:11:01;19.70;56.00
59977;DHT22;45837;51.076;3.578;2023-04-25T05:13:56;19.70;56.00
59977;DHT22;45837;51.076;3.578;2023-04-25T05:17:01;19.90;56.00
59977;DHT22;45837;51.076;3.578;2023-04-25T05:19:38;20.00;55.90
59977;DHT22;45837;51.076;3.578;2023-04-25T05:22:23;20.10;55.30
59977;DHT22;45837;51.076;3.578;2023-04-25T05:25:08;20.20;55.30
59977;DHT22;45837;51.076;3.578;2023-04-25T05:27:52;20.30;54.90
59977;DHT22;45837;51.076;3.578;2023-04-25T05:30:36;20.40;55.00
59977;DHT22;45837;51.076;3.578;2023-04-25T05:33:16;20.40;55.10
59977;DHT22;45837;51.076;3.578;2023-04-25T05:35:43;20.50;54.60
59977;DHT22;45837;51.076;3.578;2023-04-25T05:38:10;20.50;54.90
59977;DHT22;45837;51.076;3.578;2023-04-25T05:41:08;20.60;54.40
59977;DHT22;45837;51.076;3.578;2023-04-25T05:43:52;20.60;54.30
59977;DHT22;45837;51.076;3.578;2023-04-25T05:46:33;20.60;54.20
59977;DHT22;45837;51.076;3.578;2023-04-25T05:49:13;20.60;54.00
59977;DHT22;45837;51.076;3.578;2023-04-25T05:52:02;20.60;54.10
59977;DHT22;45837;51.076;3.578;2023-04-25T05:55:03;20.60;54.30
59977;DHT22;45837;51.076;3.578;2023-04-25T05:57:31;20.60;53.90
59977;DHT22;45837;51.076;3.578;2023-04-25T05:59:58;20.60;54.30
59977;DHT22;45837;51.076;3.578;2023-04-25T06:02:38;20.50;53.90
59977;DHT22;45837;51.076;3.578;2023-04-25T06:05:05;20.50;53.80
59977;DHT22;45837;51.076;3.578;2023-04-25T06:07:30;20.60;54.20
59977;DHT22;45837;51.076;3.578;2023-04-25T06:09:56;20.50;54.10
59977;DHT22;45837;51.076;3.578;2023-04-25T06:12:22;20.50;53.40
59977;DHT22;45837;51.076;3.578;2023-04-25T06:14:50;20.50;54.20
59977;DHT22;45837;51.076;3.578;2023-04-25T06:17:16;20.50;53.80
59977;DHT22;45837;51.076;3.578;2023-04-25T06:19:41;20.50;53.70
59977;DHT22;45837;51.076;3.578;2023-04-25T06:22:07;20.40;53.70
59977;DHT22;45837;51.076;3.578;2023-04-25T06:24:34;20.40;53.60
59977;DHT22;45837;51.076;3.578;2023-04-25T06:27:03;20.40;53.60
59977;DHT22;45837;51.076;3.578;2023-04-25T06:29:28;20.40;54.00
59977;DHT22;45837;51.076;3.578;2023-04-25T06:31:54;20.40;54.10
59977;DHT22;45837;51.076;3.578;2023-04-25T06:34:21;20.40;53.60
59977;DHT22;45837;51.076;3.578;2023-04-25T06:36:46;18.80;53.50
59977;DHT22;45837;51.076;3.578;2023-04-25T06:39:14;20.30;53.90
59977;DHT22;45837;51.076;3.578;2023-04-25T06:41:40;20.30;53.40
59977;DHT22;45837;51.076;3.578;2023-04-25T06:44:13;20.30;53.50
59977;DHT22;45837;51.076;3.578;2023-04-25T06:46:48;20.30;53.20
59977;DHT22;45837;51.076;3.578;2023-04-25T06:49:14;20.30;54.50
59977;DHT22;45837;51.076;3.578;2023-04-25T06:51:41;20.30;53.10
59977;DHT22;45837;51.076;3.578;2023-04-25T06:54:07;20.30;53.50
59977;DHT22;45837;51.076;3.578;2023-04-25T06:56:51;20.30;53.70
59977;DHT22;45837;51.076;3.578;2023-04-25T06:59:17;20.20;53.40
59977;DHT22;45837;51.076;3.578;2023-04-25T07:01:44;20.20;53.80
59977;DHT22;45837;51.076;3.578;2023-04-25T07:04:15;20.20;53.30
59977;DHT22;45837;51.076;3.578;2023-04-25T07:06:47;20.20;53.60
59977;DHT22;45837;51.076;3.578;2023-04-25T07:09:16;20.20;53.70
59977;DHT22;45837;51.076;3.578;2023-04-25T07:11:45;20.30;54.00
59977;DHT22;45837;51.076;3.578;2023-04-25T07:14:11;20.30;53.30
59977;DHT22;45837;51.076;3.578;2023-04-25T07:16:37;20.30;53.50
59977;DHT22;45837;51.076;3.578;2023-04-25T07:19:02;20.20;53.50
59977;DHT22;45837;51.076;3.578;2023-04-25T07:21:28;20.30;53.40
59977;DHT22;45837;51.076;3.578;2023-04-25T07:23:57;20.30;53.10
59977;DHT22;45837;51.076;3.578;2023-04-25T07:26:28;20.30;53.30
59977;DHT22;45837;51.076;3.578;2023-04-25T07:29:14;20.30;53.40
59977;DHT22;45837;51.076;3.578;2023-04-25T07:31:39;20.40;53.20
59977;DHT22;45837;51.076;3.578;2023-04-25T07:34:05;20.30;53.30
59977;DHT22;45837;51.076;3.578;2023-04-25T07:36:31;20.40;53.30
59977;DHT22;45837;51.076;3.578;2023-04-25T07:38:57;20.30;53.40
59977;DHT22;45837;51.076;3.578;2023-04-25T07:41:22;20.30;53.20
59977;DHT22;45837;51.076;3.578;2023-04-25T07:43:48;20.30;53.30
59977;DHT22;45837;51.076;3.578;2023-04-25T07:46:14;20.30;54.20
59977;DHT22;45837;51.076;3.578;2023-04-25T07:48:40;20.30;53.40
59977;DHT22;45837;51.076;3.578;2023-04-25T07:51:06;20.30;53.10
59977;DHT22;45837;51.076;3.578;2023-04-25T07:53:34;20.30;52.90
59977;DHT22;45837;51.076;3.578;2023-04-25T07:56:06;20.30;53.30
59977;DHT22;45837;51.076;3.578;2023-04-25T07:58:35;20.20;53.20
59977;DHT22;45837;51.076;3.578;2023-04-25T08:01:03;20.20;54.10
59977;DHT22;45837;51.076;3.578;2023-04-25T08:03:47;20.20;53.00
59977;DHT22;45837;51.076;3.578;2023-04-25T08:06:34;20.20;53.00
59977;DHT22;45837;51.076;3.578;2023-04-25T08:09:13;20.20;53.00
59977;DHT22;45837;51.076;3.578;2023-04-25T08:11:41;20.20;53.60
59977;DHT22;45837;51.076;3.578;2023-04-25T08:14:09;20.20;52.70
59977;DHT22;45837;51.076;3.578;2023-04-25T08:16:36;20.20;52.80
59977;DHT22;45837;51.076;3.578;2023-04-25T08:19:02;20.20;52.90
59977;DHT22;45837;51.076;3.578;2023-04-25T08:21:28;20.20;53.20
59977;DHT22;45837;51.076;3.578;2023-04-25T08:23:56;20.20;52.90
59977;DHT22;45837;51.076;3.578;2023-04-25T08:26:28;20.20;52.80
59977;DHT22;45837;51.076;3.578;2023-04-25T08:28:54;20.20;52.30
59977;DHT22;45837;51.076;3.578;2023-04-25T08:31:21;20.20;53.00
59977;DHT22;45837;51.076;3.578;2023-04-25T08:33:54;20.20;52.60
59977;DHT22;45837;51.076;3.578;2023-04-25T08:36:27;20.20;52.60
59977;DHT22;45837;51.076;3.578;2023-04-25T08:38:54;20.30;52.40
59977;DHT22;45837;51.076;3.578;2023-04-25T08:41:21;20.30;52.40
59977;DHT22;45837;51.076;3.578;2023-04-25T08:43:48;20.30;52.10
59977;DHT22;45837;51.076;3.578;2023-04-25T08:46:15;20.30;52.10
59977;DHT22;45837;51.076;3.578;2023-04-25T08:49:01;20.30;51.90
59977;DHT22;45837;51.076;3.578;2023-04-25T08:51:30;20.30;51.90
59977;DHT22;45837;51.076;3.578;2023-04-25T08:54:08;20.40;51.90
59977;DHT22;45837;51.076;3.578;2023-04-25T08:56:35;20.30;51.70
59977;DHT22;45837;51.076;3.578;2023-04-25T08:59:02;20.40;53.10
59977;DHT22;45837;51.076;3.578;2023-04-25T09:01:28;20.40;52.50
59977;DHT22;45837;51.076;3.578;2023-04-25T09:03:56;20.30;52.00
59977;DHT22;45837;51.076;3.578;2023-04-25T09:06:22;20.40;51.80
59977;DHT22;45837;51.076;3.578;2023-04-25T09:08:49;20.40;51.80
59977;DHT22;45837;51.076;3.578;2023-04-25T09:11:15;20.30;51.70
59977;DHT22;45837;51.076;3.578;2023-04-25T09:13:42;20.30;52.00
59977;DHT22;45837;51.076;3.578;2023-04-25T09:16:22;20.30;51.90
59977;DHT22;45837;51.076;3.578;2023-04-25T09:19:05;20.30;52.00
59977;DHT22;45837;51.076;3.578;2023-04-25T09:21:32;20.30;52.20
59977;DHT22;45837;51.076;3.578;2023-04-25T09:24:00;20.30;51.80
59977;DHT22;45837;51.076;3.578;2023-04-25T09:26:26;20.30;52.40
59977;DHT22;45837;51.076;3.578;2023-04-25T09:29:04;20.30;52.10
59977;DHT22;45837;51.076;3.578;2023-04-25T09:31:30;20.30;51.70
59977;DHT22;45837;51.076;3.578;2023-04-25T09:34:00;20.30;51.80
59977;DHT22;45837;51.076;3.578;2023-04-25T09:36:27;20.30;52.30
59977;DHT22;45837;51.076;3.578;2023-04-25T09:39:12;20.30;52.10
59977;DHT22;45837;51.076;3.578;2023-04-25T09:41:41;20.30;51.80
59977;DHT22;45837;51.076;3.578;2023-04-25T09:44:07;20.30;52.00
59977;DHT22;45837;51.076;3.578;2023-04-25T09:46:36;20.30;52.10
59977;DHT22;45837;51.076;3.578;2023-04-25T09:49:07;18.80;52.10
59977;DHT22;45837;51.076;3.578;2023-04-25T09:51:55;20.20;51.60
59977;DHT22;45837;51.076;3.578;2023-04-25T09:54:25;20.30;51.70
59977;DHT22;45837;51.076;3.578;2023-04-25T09:57:14;20.20;51.80
59977;DHT22;45837;51.076;3.578;2023-04-25T09:59:44;20.20;51.80
59977;DHT22;45837;51.076;3.578;2023-04-25T10:02:11;20.20;51.80
59977;DHT22;45837;51.076;3.578;2023-04-25T10:04:38;20.20;52.00
59977;DHT22;45837;51.076;3.578;2023-04-25T10:07:26;20.20;51.90
59977;DHT22;45837;51.076;3.578;2023-04-25T10:09:54;20.20;51.60
59977;DHT22;45837;51.076;3.578;2023-04-25T10:12:21;20.20;51.60
59977;DHT22;45837;51.076;3.578;2023-04-25T10:14:47;20.20;51.70
59977;DHT22;45837;51.076;3.578;2023-04-25T10:17:13;20.20;52.20
59977;DHT22;45837;51.076;3.578;2023-04-25T10:19:39;20.20;51.80
59977;DHT22;45837;51.076;3.578;2023-04-25T10:24:30;20.20;52.50
59977;DHT22;45837;51.076;3.578;2023-04-25T10:26:56;20.20;52.30
59977;DHT22;45837;51.076;3.578;2023-04-25T10:29:23;20.20;52.00
59977;DHT22;45837;51.076;3.578;2023-04-25T10:31:49;20.20;51.80
59977;DHT22;45837;51.076;3.578;2023-04-25T10:34:15;20.20;52.50
59977;DHT22;45837;51.076;3.578;2023-04-25T10:36:42;20.20;51.90
59977;DHT22;45837;51.076;3.578;2023-04-25T10:39:08;20.20;52.00
59977;DHT22;45837;51.076;3.578;2023-04-25T10:41:45;20.20;52.10
59977;DHT22;45837;51.076;3.578;2023-04-25T10:44:12;20.20;52.10
59977;DHT22;45837;51.076;3.578;2023-04-25T10:46:38;20.20;52.10
59977;DHT22;45837;51.076;3.578;2023-04-25T10:49:04;20.20;52.30
59977;DHT22;45837;51.076;3.578;2023-04-25T10:51:33;20.20;52.50
59977;DHT22;45837;51.076;3.578;2023-04-25T10:54:03;20.20;51.70
59977;DHT22;45837;51.076;3.578;2023-04-25T10:56:33;20.20;51.50
59977;DHT22;45837;51.076;3.578;2023-04-25T10:59:18;20.20;51.60
59977;DHT22;45837;51.076;3.578;2023-04-25T11:01:44;20.20;51.70
59977;DHT22;45837;51.076;3.578;2023-04-25T11:04:20;20.20;51.60
59977;DHT22;45837;51.076;3.578;2023-04-25T11:06:50;20.20;51.50
59977;DHT22;45837;51.076;3.578;2023-04-25T11:09:17;20.20;51.50
59977;DHT22;45837;51.076;3.578;2023-04-25T11:11:42;20.20;51.80
59977;DHT22;45837;51.076;3.578;2023-04-25T11:14:08;20.20;51.70
59977;DHT22;45837;51.076;3.578;2023-04-25T11:16:34;20.20;51.80
59977;DHT22;45837;51.076;3.578;2023-04-25T11:19:01;20.30;51.60
59977;DHT22;45837;51.076;3.578;2023-04-25T11:21:27;20.20;51.80
59977;DHT22;45837;51.076;3.578;2023-04-25T11:23:53;20.30;51.80
59977;DHT22;45837;51.076;3.578;2023-04-25T11:26:19;20.30;51.60
59977;DHT22;45837;51.076;3.578;2023-04-25T11:28:45;20.30;52.10
59977;DHT22;45837;51.076;3.578;2023-04-25T11:31:12;20.20;52.20
59977;DHT22;45837;51.076;3.578;2023-04-25T11:33:38;20.30;52.10
59977;DHT22;45837;51.076;3.578;2023-04-25T11:36:03;20.20;52.30
59977;DHT22;45837;51.076;3.578;2023-04-25T11:38:30;20.20;52.00
59977;DHT22;45837;51.076;3.578;2023-04-25T11:40:56;20.20;52.20
59977;DHT22;45837;51.076;3.578;2023-04-25T11:43:22;20.20;52.00
59977;DHT22;45837;51.076;3.578;2023-04-25T11:45:51;20.20;51.70
59977;DHT22;45837;51.076;3.578;2023-04-25T11:48:18;20.20;51.80
59977;DHT22;45837;51.076;3.578;2023-04-25T11:50:44;20.20;51.80
59977;DHT22;45837;51.076;3.578;2023-04-25T11:53:09;20.20;51.90
59977;DHT22;45837;51.076;3.578;2023-04-25T11:55:36;20.20;51.80
59977;DHT22;45837;51.076;3.578;2023-04-25T11:58:01;20.20;52.10
59977;DHT22;45837;51.076;3.578;2023-04-25T12:00:29;20.20;51.70
59977;DHT22;45837;51.076;3.578;2023-04-25T12:02:56;20.20;51.70
59977;DHT22;45837;51.076;3.578;2023-04-25T12:05:24;20.20;51.80
59977;DHT22;45837;51.076;3.578;2023-04-25T12:07:50;20.20;51.70
59977;DHT22;45837;51.076;3.578;2023-04-25T12:10:18;20.20;52.10
59977;DHT22;45837;51.076;3.578;2023-04-25T12:12:46;20.20;52.20
59977;DHT22;45837;51.076;3.578;2023-04-25T12:17:41;20.20;52.10
59977;DHT22;45837;51.076;3.578;2023-04-25T12:20:10;20.20;51.90
59977;DHT22;45837;51.076;3.578;2023-04-25T12:22:37;20.20;51.80
59977;DHT22;45837;51.076;3.578;2023-04-25T12:25:03;20.20;52.40
59977;DHT22;45837;51.076;3.578;2023-04-25T12:27:30;20.20;51.80
59977;DHT22;45837;51.076;3.578;2023-04-25T12:29:56;20.20;51.90
59977;DHT22;45837;51.076;3.578;2023-04-25T12:32:22;20.20;51.60
59977;DHT22;45837;51.076;3.578;2023-04-25T12:34:48;20.20;52.00
59977;DHT22;45837;51.076;3.578;2023-04-25T12:37:14;20.20;51.80
59977;DHT22;45837;51.076;3.578;2023-04-25T12:39:40;20.20;52.40
59977;DHT22;45837;51.076;3.578;2023-04-25T12:42:05;20.20;52.70
59977;DHT22;45837;51.076;3.578;2023-04-25T12:44:33;20.20;52.00
59977;DHT22;45837;51.076;3.578;2023-04-25T12:46:59;20.20;52.20
59977;DHT22;45837;51.076;3.578;2023-04-25T12:49:25;20.20;52.50
59977;DHT22;45837;51.076;3.578;2023-04-25T12:51:51;20.20;52.70
59977;DHT22;45837;51.076;3.578;2023-04-25T12:54:17;20.20;52.20
59977;DHT22;45837;51.076;3.578;2023-04-25T12:56:42;20.20;52.90
59977;DHT22;45837;51.076;3.578;2023-04-25T12:59:08;20.20;52.00
59977;DHT22;45837;51.076;3.578;2023-04-25T13:01:34;20.20;52.20
59977;DHT22;45837;51.076;3.578;2023-04-25T13:04:00;20.20;52.60
59977;DHT22;45837;51.076;3.578;2023-04-25T13:06:26;20.20;52.40
59977;DHT22;45837;51.076;3.578;2023-04-25T13:08:52;20.20;52.10
59977;DHT22;45837;51.076;3.578;2023-04-25T13:11:18;20.20;53.30
59977;DHT22;45837;51.076;3.578;2023-04-25T13:13:43;20.20;52.50
59977;DHT22;45837;51.076;3.578;2023-04-25T13:16:09;20.20;52.20
59977;DHT22;45837;51.076;3.578;2023-04-25T13:18:35;20.20;51.80
59977;DHT22;45837;51.076;3.578;2023-04-25T13:21:01;20.20;52.00
59977;DHT22;45837;51.076;3.578;2023-04-25T13:23:27;20.20;52.20
59977;DHT22;45837;51.076;3.578;2023-04-25T13:25:53;20.20;52.20
59977;DHT22;45837;51.076;3.578;2023-04-25T13:28:20;20.10;51.90
59977;DHT22;45837;51.076;3.578;2023-04-25T13:30:46;20.20;51.90
59977;DHT22;45837;51.076;3.578;2023-04-25T13:33:13;20.20;51.90
59977;DHT22;45837;51.076;3.578;2023-04-25T13:35:39;20.20;51.40
59977;DHT22;45837;51.076;3.578;2023-04-25T13:38:05;20.20;52.10
59977;DHT22;45837;51.076;3.578;2023-04-25T13:40:30;20.10;52.00
59977;DHT22;45837;51.076;3.578;2023-04-25T13:42:57;20.10;52.30
59977;DHT22;45837;51.076;3.578;2023-04-25T13:45:23;20.20;51.80
59977;DHT22;45837;51.076;3.578;2023-04-25T13:47:49;20.20;52.40
59977;DHT22;45837;51.076;3.578;2023-04-25T13:50:15;20.10;52.10
59977;DHT22;45837;51.076;3.578;2023-04-25T13:52:41;20.10;52.20
59977;DHT22;45837;51.076;3.578;2023-04-25T13:55:07;20.10;51.70
59977;DHT22;45837;51.076;3.578;2023-04-25T13:57:34;20.10;51.80
59977;DHT22;45837;51.076;3.578;2023-04-25T14:00:00;20.10;51.70
59977;DHT22;45837;51.076;3.578;2023-04-25T14:02:32;20.10;51.70
59977;DHT22;45837;51.076;3.578;2023-04-25T14:04:57;20.10;51.80
59977;DHT22;45837;51.076;3.578;2023-04-25T14:07:23;20.10;52.00
59977;DHT22;45837;51.076;3.578;2023-04-25T14:09:49;20.10;51.80
59977;DHT22;45837;51.076;3.578;2023-04-25T14:12:15;20.10;52.00
59977;DHT22;45837;51.076;3.578;2023-04-25T14:14:41;20.10;51.40
59977;DHT22;45837;51.076;3.578;2023-04-25T14:17:08;20.10;51.40
59977;DHT22;45837;51.076;3.578;2023-04-25T14:19:33;20.10;52.10
59977;DHT22;45837;51.076;3.578;2023-04-25T14:21:59;20.10;52.10
59977;DHT22;45837;51.076;3.578;2023-04-25T14:24:25;20.10;51.90
59977;DHT22;45837;51.076;3.578;2023-04-25T14:26:50;20.10;51.80
59977;DHT22;45837;51.076;3.578;2023-04-25T14:29:16;20.10;52.00
59977;DHT22;45837;51.076;3.578;2023-04-25T14:31:41;20.10;51.70
59977;DHT22;45837;51.076;3.578;2023-04-25T14:34:07;20.00;51.70
59977;DHT22;45837;51.076;3.578;2023-04-25T14:36:33;20.10;51.70
59977;DHT22;45837;51.076;3.578;2023-04-25T14:38:59;20.00;51.10
59977;DHT22;45837;51.076;3.578;2023-04-25T14:41:25;20.10;51.10
59977;DHT22;45837;51.076;3.578;2023-04-25T14:43:51;20.10;50.60
59977;DHT22;45837;51.076;3.578;2023-04-25T14:46:18;20.10;51.40
59977;DHT22;45837;51.076;3.578;2023-04-25T14:48:44;20.10;50.40
59977;DHT22;45837;51.076;3.578;2023-04-25T14:51:10;20.10;50.70
59977;DHT22;45837;51.076;3.578;2023-04-25T14:53:36;20.00;51.00
59977;DHT22;45837;51.076;3.578;2023-04-25T14:56:02;20.10;51.10
59977;DHT22;45837;51.076;3.578;2023-04-25T14:58:27;20.10;50.70
59977;DHT22;45837;51.076;3.578;2023-04-25T15:00:53;20.10;50.40
59977;DHT22;45837;51.076;3.578;2023-04-25T15:03:19;20.00;50.40
59977;DHT22;45837;51.076;3.578;2023-04-25T15:05:44;20.10;50.40
59977;DHT22;45837;51.076;3.578;2023-04-25T15:08:10;20.10;51.00
59977;DHT22;45837;51.076;3.578;2023-04-25T15:10:36;20.10;50.80
59977;DHT22;45837;51.076;3.578;2023-04-25T15:13:02;20.10;50.20
59977;DHT22;45837;51.076;3.578;2023-04-25T15:15:28;20.10;50.20
59977;DHT22;45837;51.076;3.578;2023-04-25T15:17:54;20.10;50.50
59977;DHT22;45837;51.076;3.578;2023-04-25T15:20:20;20.10;50.20
59977;DHT22;45837;51.076;3.578;2023-04-25T15:22:46;20.10;50.60
59977;DHT22;45837;51.076;3.578;2023-04-25T15:25:14;20.10;50.20
59977;DHT22;45837;51.076;3.578;2023-04-25T15:27:40;20.10;50.10
59977;DHT22;45837;51.076;3.578;2023-04-25T15:30:09;20.10;50.30
59977;DHT22;45837;51.076;3.578;2023-04-25T15:32:36;20.10;50.10
59977;DHT22;45837;51.076;3.578;2023-04-25T15:35:03;20.10;50.20
59977;DHT22;45837;51.076;3.578;2023-04-25T15:37:29;20.10;50.10
59977;DHT22;45837;51.076;3.578;2023-04-25T15:42:51;20.10;50.40
59977;DHT22;45837;51.076;3.578;2023-04-25T15:45:17;20.10;50.30
59977;DHT22;45837;51.076;3.578;2023-04-25T15:47:43;20.10;50.00
59977;DHT22;45837;51.076;3.578;2023-04-25T15:50:09;20.10;50.00